Time;durP1;ratioP1;P1;durP2;ratioP2;P2;SDS_P1;SDS_P2;PMS_P1;PMS_P2;Temp;Humidity;BMP_temperature;BMP_pressure;BME280_temperature;BME280_humidity;BME280_pressure;Samples;Min_cycle;Max_cycle;Signal;HPM_P1;HPM_P2
2022/01/21 00:01:40;;;;;;;14.23;7.80;;;0.40;99.90;;;1.16;100.00;99134.81;5181843;28;20596;-67
2022/01/21 00:04:15;;;;;;;13.73;8.33;;;0.40;99.90;;;1.26;100.00;99139.25;5178027;28;20312;-66
2022/01/21 00:06:48;;;;;;;15.13;8.37;;;0.40;99.90;;;1.28;100.00;99143.75;5182956;28;20245;-66
2022/01/21 00:09:21;;;;;;;12.60;8.43;;;0.40;99.90;;;1.27;100.00;99151.13;5182103;28;20234;-66
2022/01/21 00:11:54;;;;;;;16.37;7.97;;;0.40;99.90;;;1.28;100.00;99145.38;5181019;28;20221;-66
2022/01/21 00:14:27;;;;;;;11.90;8.40;;;0.40;99.90;;;1.28;100.00;99150.41;5180779;28;20215;-67
2022/01/21 00:17:00;;;;;;;14.13;8.33;;;0.40;99.90;;;1.26;100.00;99149.31;5195755;28;20220;-66
2022/01/21 00:19:39;;;;;;;14.90;8.17;;;0.30;99.90;;;1.27;100.00;99144.47;5184735;28;20719;-66
2022/01/21 00:30:50;;;;;;;13.10;9.20;;;0.40;99.90;;;1.25;100.00;99148.44;5174137;28;20234;-66
2022/01/21 00:33:23;;;;;;;12.33;8.57;;;0.40;99.90;;;1.26;100.00;99140.19;5177501;28;20229;-66
2022/01/21 00:35:58;;;;;;;12.97;9.13;;;0.40;99.90;;;1.23;100.00;99147.38;5183610;28;20581;-66
2022/01/21 00:38:32;;;;;;;15.17;9.67;;;0.40;99.90;;;1.23;100.00;99138.91;5176309;28;20230;-66
2022/01/21 00:41:07;;;;;;;15.77;9.40;;;0.40;99.90;;;1.23;100.00;99146.47;5185894;28;20234;-66
2022/01/21 00:43:44;;;;;;;15.63;8.43;;;0.40;99.90;;;1.21;100.00;99140.38;5173738;28;20232;-65
2022/01/21 00:46:19;;;;;;;13.47;8.23;;;0.30;99.90;;;1.13;100.00;99137.88;5172702;28;20620;-66
2022/01/21 00:48:52;;;;;;;15.33;8.07;;;0.30;99.90;;;1.15;100.00;99138.06;5187183;28;20317;-66
2022/01/21 00:51:26;;;;;;;9.30;6.93;;;0.30;99.90;;;1.17;100.00;99149.19;5186633;28;20605;-66
2022/01/21 00:53:59;;;;;;;13.90;8.47;;;0.40;99.90;;;1.20;100.00;99153.66;5189713;28;20222;-68
2022/01/21 00:56:32;;;;;;;11.67;8.10;;;0.30;99.90;;;1.19;100.00;99157.81;5196567;28;20716;-66
2022/01/21 00:59:05;;;;;;;14.77;8.30;;;0.40;99.90;;;1.17;100.00;99166.81;5193745;28;20226;-66
2022/01/21 01:01:39;;;;;;;15.43;8.57;;;0.30;99.90;;;1.19;100.00;99172.03;5191453;28;20219;-66
2022/01/21 01:04:12;;;;;;;15.40;8.50;;;0.40;99.90;;;1.35;100.00;99163.88;5190373;28;20213;-66
2022/01/21 01:06:47;;;;;;;12.07;7.73;;;0.30;99.90;;;1.29;100.00;99153.13;5191524;28;20248;-66
2022/01/21 01:09:20;;;;;;;11.83;7.63;;;0.30;99.90;;;1.25;100.00;99167.69;5183104;28;20222;-66
2022/01/21 01:12:11;;;;;;;13.33;7.93;;;0.30;99.90;;;1.25;100.00;99160.13;5200272;28;20224;-66
2022/01/21 01:20:25;;;;;;;13.73;8.03;;;0.30;99.90;;;1.22;100.00;99188.38;5188476;28;20230;-66
2022/01/21 01:23:06;;;;;;;14.30;8.40;;;0.40;99.90;;;1.24;100.00;99191.97;5183577;28;20231;-66
2022/01/21 01:28:30;;;;;;;12.37;7.70;;;0.40;99.90;;;1.29;100.00;99190.88;5184308;28;20223;-66
2022/01/21 01:31:04;;;;;;;16.03;8.20;;;0.40;99.90;;;1.28;100.00;99191.59;5189560;28;20318;-66
2022/01/21 01:33:39;;;;;;;12.10;8.20;;;0.40;99.90;;;1.32;100.00;99186.19;5193505;28;20255;-66
2022/01/21 01:36:12;;;;;;;13.33;7.93;;;0.40;99.90;;;1.37;100.00;99188.31;5189494;28;20221;-66
2022/01/21 01:39:07;;;;;;;13.13;7.77;;;0.40;99.90;;;1.31;100.00;99179.34;5180284;28;20231;-66
2022/01/21 01:41:45;;;;;;;11.40;7.80;;;0.40;99.90;;;1.31;100.00;99176.81;5194108;28;20234;-66
2022/01/21 01:49:59;;;;;;;14.53;8.20;;;0.30;99.90;;;1.27;100.00;99179.72;5180665;28;20229;-66
2022/01/21 01:52:33;;;;;;;9.30;7.47;;;0.40;99.90;;;1.26;100.00;99180.47;5183256;28;20735;-66
2022/01/21 01:55:09;;;;;;;13.67;7.40;;;0.40;99.90;;;1.22;100.00;99179.94;5185969;28;20225;-66
2022/01/21 01:57:42;;;;;;;9.17;7.60;;;0.30;99.90;;;1.24;100.00;99181.00;5194320;28;20224;-66
2022/01/21 02:00:17;;;;;;;10.63;7.97;;;0.30;99.90;;;1.21;100.00;99180.66;5186090;28;20224;-66
2022/01/21 02:02:50;;;;;;;15.43;8.03;;;0.20;99.90;;;1.19;100.00;99177.06;5180821;28;20228;-67
2022/01/21 02:05:24;;;;;;;8.67;6.97;;;0.20;99.90;;;1.12;100.00;99173.84;5184389;28;20768;-66
2022/01/21 02:07:57;;;;;;;10.47;7.30;;;0.20;99.90;;;1.08;100.00;99163.25;5179514;28;20226;-66
2022/01/21 02:10:31;;;;;;;12.40;7.43;;;0.20;99.90;;;1.03;100.00;99169.38;5187604;28;20230;-66
2022/01/21 02:13:17;;;;;;;12.77;7.57;;;0.20;99.90;;;0.97;100.00;99169.56;5189683;28;20233;-66
2022/01/21 02:16:10;;;;;;;9.23;8.20;;;0.10;99.90;;;0.98;100.00;99165.44;5184493;28;20229;-66
2022/01/21 02:21:38;;;;;;;15.17;8.80;;;0.10;99.90;;;0.98;100.00;99167.97;5186851;28;20594;-66
2022/01/21 02:24:16;;;;;;;12.47;7.77;;;0.10;99.90;;;1.00;100.00;99177.50;5182027;28;20738;-67
2022/01/21 02:26:52;;;;;;;11.00;7.83;;;0.10;99.90;;;1.00;100.00;99179.09;5185993;28;20227;-66
2022/01/21 02:29:30;;;;;;;15.10;9.10;;;0.10;99.90;;;1.00;100.00;99184.13;5185737;28;20219;-68
2022/01/21 02:32:04;;;;;;;11.70;7.67;;;0.10;99.90;;;1.01;100.00;99188.44;5182319;28;20226;-66
2022/01/21 02:34:38;;;;;;;9.10;7.37;;;0.20;99.90;;;1.02;100.00;99198.69;5186800;28;20226;-66
2022/01/21 02:37:15;;;;;;;14.93;8.67;;;0.20;99.90;;;1.02;100.00;99202.81;5188065;28;20228;-66
2022/01/21 02:39:50;;;;;;;12.23;8.23;;;0.20;99.90;;;1.05;100.00;99198.13;5183700;28;20705;-66
2022/01/21 02:42:23;;;;;;;9.70;7.90;;;0.20;99.90;;;1.05;100.00;99203.16;5186686;28;20230;-66
2022/01/21 02:44:56;;;;;;;11.80;7.93;;;0.20;99.90;;;1.03;100.00;99184.47;5181407;28;20216;-66
2022/01/21 02:47:29;;;;;;;9.90;7.53;;;0.10;99.90;;;0.96;100.00;99187.03;5184435;28;20233;-66
2022/01/21 02:50:03;;;;;;;14.53;7.80;;;0.10;99.90;;;0.93;100.00;99179.13;5191689;28;20253;-65
2022/01/21 02:52:53;;;;;;;14.33;8.50;;;0.10;99.90;;;0.91;100.00;99186.47;5185085;28;20226;-66
2022/01/21 02:55:26;;;;;;;13.40;9.03;;;0.00;99.90;;;0.88;100.00;99188.63;5188226;28;20219;-66
2022/01/21 02:57:59;;;;;;;13.40;9.07;;;0.00;99.90;;;0.85;100.00;99195.84;5216460;22;20225;-63
2022/01/21 03:00:33;;;;;;;12.80;9.30;;;0.00;99.90;;;0.83;100.00;99190.63;5216289;28;20725;-63
2022/01/21 03:03:07;;;;;;;12.93;8.83;;;0.00;99.90;;;0.86;100.00;99197.66;5216288;28;20227;-62
2022/01/21 03:05:40;;;;;;;11.83;8.83;;;0.00;99.90;;;0.86;100.00;99201.06;5215559;28;20275;-62
2022/01/21 03:08:15;;;;;;;17.60;8.73;;;0.00;99.90;;;0.87;100.00;99199.44;5205372;28;20607;-62
2022/01/21 03:10:48;;;;;;;11.43;8.17;;;0.00;99.90;;;0.86;100.00;99201.06;5197732;28;20221;-64
2022/01/21 03:13:22;;;;;;;11.70;8.10;;;0.00;99.90;;;0.90;100.00;99205.72;5201906;28;20226;-65
2022/01/21 03:15:55;;;;;;;12.60;7.60;;;0.00;99.90;;;0.95;100.00;99210.41;5203497;28;20232;-64
2022/01/21 03:18:28;;;;;;;14.60;8.37;;;0.10;99.90;;;0.99;100.00;99217.56;5201011;28;20221;-61
2022/01/21 03:21:01;;;;;;;17.20;8.77;;;0.10;99.90;;;1.02;100.00;99217.94;5197870;28;20231;-62
2022/01/21 03:23:36;;;;;;;14.33;8.53;;;0.00;99.90;;;0.93;100.00;99222.78;5194208;28;20728;-65
2022/01/21 03:26:09;;;;;;;9.77;7.77;;;0.00;99.90;;;0.96;100.00;99228.19;5191760;28;20217;-62
2022/01/21 03:28:43;;;;;;;13.97;8.53;;;0.10;99.90;;;1.01;100.00;99227.09;5198809;28;20861;-62
2022/01/21 03:31:17;;;;;;;14.10;8.60;;;0.10;99.90;;;0.98;100.00;99225.84;5198137;28;20220;-59
2022/01/21 03:33:50;;;;;;;12.20;8.40;;;0.00;99.90;;;1.02;100.00;99213.78;5193650;28;20226;-62
2022/01/21 03:36:23;;;;;;;14.40;9.20;;;0.10;99.90;;;0.99;100.00;99220.09;5194451;28;20226;-62
2022/01/21 03:38:58;;;;;;;11.80;7.90;;;0.10;99.90;;;1.02;100.00;99197.78;5193984;28;20233;-62
2022/01/21 03:41:31;;;;;;;14.47;8.63;;;0.10;99.90;;;1.07;100.00;99211.81;5199441;28;20235;-62
2022/01/21 03:44:05;;;;;;;14.40;8.77;;;0.20;99.90;;;1.06;100.00;99203.38;5200832;28;20231;-62
2022/01/21 03:46:38;;;;;;;18.47;9.03;;;0.10;99.90;;;1.06;100.00;99220.97;5193350;28;20223;-61
2022/01/21 03:49:11;;;;;;;14.17;8.60;;;0.20;99.90;;;1.06;100.00;99226.03;5204307;28;20221;-62
2022/01/21 03:51:44;;;;;;;15.73;9.20;;;0.20;99.90;;;1.11;100.00;99234.09;5203623;28;20215;-62
2022/01/21 03:54:18;;;;;;;13.93;8.57;;;0.20;99.90;;;1.13;100.00;99230.13;5203116;28;20224;-61
2022/01/21 03:56:51;;;;;;;14.97;8.57;;;0.20;99.90;;;1.14;100.00;99226.88;5200432;28;20319;-62
2022/01/21 03:59:24;;;;;;;14.90;9.00;;;0.20;99.90;;;1.13;100.00;99222.56;5195338;28;20236;-61
2022/01/21 04:01:57;;;;;;;13.53;8.60;;;0.20;99.90;;;1.18;100.00;99230.69;5197099;28;20312;-61
2022/01/21 04:04:31;;;;;;;13.73;9.17;;;0.30;99.90;;;1.15;100.00;99225.28;5195389;28;20318;-62
2022/01/21 04:07:07;;;;;;;16.87;9.70;;;0.30;99.90;;;1.18;100.00;99230.69;5195395;28;20235;-61
2022/01/21 04:09:41;;;;;;;13.83;9.10;;;0.30;99.90;;;1.18;100.00;99224.00;5197490;28;20226;-62
2022/01/21 04:12:14;;;;;;;11.63;8.67;;;0.30;99.90;;;1.23;100.00;99230.47;5194370;28;20229;-62
2022/01/21 04:14:47;;;;;;;12.67;8.77;;;0.30;99.90;;;1.22;100.00;99231.19;5194738;28;20232;-61
2022/01/21 04:17:23;;;;;;;15.57;9.30;;;0.30;99.90;;;1.25;100.00;99229.00;5193877;28;20920;-62
2022/01/21 04:19:56;;;;;;;12.63;8.67;;;0.40;99.90;;;1.29;100.00;99225.25;5198213;28;20246;-62
2022/01/21 04:22:29;;;;;;;13.73;8.77;;;0.30;99.90;;;1.25;100.00;99226.50;5199929;28;20230;-62
2022/01/21 04:25:05;;;;;;;11.50;7.57;;;0.20;99.90;;;1.25;100.00;99235.69;5197072;28;20218;-60
2022/01/21 04:27:39;;;;;;;16.57;9.63;;;0.30;99.90;;;1.25;100.00;99226.50;5199857;28;20234;-62
2022/01/21 04:30:13;;;;;;;13.87;8.87;;;0.30;99.90;;;1.23;100.00;99227.97;5202084;28;20237;-61
2022/01/21 04:32:46;;;;;;;11.50;8.03;;;0.30;99.90;;;1.24;100.00;99234.78;5198559;28;20231;-62
2022/01/21 04:35:19;;;;;;;13.47;8.57;;;0.30;99.90;;;1.22;100.00;99248.81;5198026;28;20226;-60
2022/01/21 04:37:55;;;;;;;11.70;8.80;;;0.30;99.90;;;1.21;100.00;99248.66;5198973;28;20223;-62
2022/01/21 04:40:34;;;;;;;15.33;8.90;;;0.30;99.90;;;1.27;100.00;99257.81;5202323;28;20236;-64
2022/01/21 04:48:49;;;;;;;11.30;7.97;;;0.30;99.90;;;1.30;100.00;99238.00;5205444;28;20703;-64
2022/01/21 04:51:27;;;;;;;15.37;8.73;;;0.40;99.90;;;1.27;100.00;99247.72;5203859;28;20594;-61
2022/01/21 04:54:00;;;;;;;15.13;8.90;;;0.30;99.90;;;1.28;100.00;99253.66;5198811;28;20217;-61
2022/01/21 04:56:34;;;;;;;14.67;9.00;;;0.20;99.90;;;1.28;100.00;99259.59;5199831;28;20222;-60
2022/01/21 04:59:08;;;;;;;15.37;9.47;;;0.30;99.90;;;1.24;100.00;99271.66;5202843;28;20225;-62
2022/01/21 05:01:41;;;;;;;13.87;8.93;;;0.20;99.90;;;1.26;100.00;99260.13;5200203;28;20696;-60
2022/01/21 05:04:14;;;;;;;14.47;9.00;;;0.30;99.90;;;1.28;100.00;99263.72;5205087;28;20272;-62
2022/01/21 05:06:49;;;;;;;14.13;8.27;;;0.40;99.90;;;1.28;100.00;99267.13;5203969;28;20220;-61
2022/01/21 05:09:29;;;;;;;10.63;8.17;;;0.30;99.90;;;1.30;100.00;99268.22;5207657;28;20575;-62
2022/01/21 05:12:11;;;;;;;13.40;8.60;;;0.40;99.90;;;1.31;100.00;99270.00;5202763;28;20718;-63
2022/01/21 05:14:51;;;;;;;13.37;8.77;;;0.40;99.90;;;1.34;100.00;99282.97;5204272;28;20227;-62
2022/01/21 05:17:25;;;;;;;15.63;9.00;;;0.40;99.90;;;1.33;100.00;99277.75;5203337;28;20230;-62
2022/01/21 05:19:58;;;;;;;10.93;8.90;;;0.30;99.90;;;1.33;100.00;99280.28;5204475;28;20225;-63
2022/01/21 05:22:31;;;;;;;15.17;8.73;;;0.30;99.90;;;1.26;100.00;99286.22;5203382;28;20230;-62
2022/01/21 05:25:06;;;;;;;14.70;9.63;;;0.20;99.90;;;1.26;100.00;99296.31;5203370;28;20713;-62
2022/01/21 05:27:43;;;;;;;13.50;9.60;;;0.30;99.90;;;1.24;100.00;99302.78;5202153;28;20549;-61
2022/01/21 05:30:17;;;;;;;17.93;9.60;;;0.30;99.90;;;1.20;100.00;99300.59;5202558;28;20233;-63
2022/01/21 05:32:50;;;;;;;13.27;9.30;;;0.20;99.90;;;1.23;100.00;99311.06;5203130;28;20220;-63
2022/01/21 05:35:24;;;;;;;11.80;9.17;;;0.10;99.90;;;1.20;100.00;99304.75;5199977;28;20591;-63
2022/01/21 05:37:57;;;;;;;14.87;9.50;;;0.20;99.90;;;1.19;100.00;99301.34;5205084;28;20694;-63
2022/01/21 05:40:30;;;;;;;15.37;9.57;;;0.20;99.90;;;1.17;100.00;99295.22;5199729;28;20227;-62
2022/01/21 05:43:05;;;;;;;15.90;9.07;;;0.10;99.90;;;1.17;100.00;99300.25;5203777;28;20227;-63
2022/01/21 05:48:29;;;;;;;17.37;9.77;;;0.10;99.90;;;1.00;100.00;99310.91;5202556;28;20231;-63
2022/01/21 05:51:02;;;;;;;16.13;10.00;;;0.10;99.90;;;0.99;100.00;99313.22;5204873;28;20227;-62
2022/01/21 05:53:35;;;;;;;15.20;9.30;;;0.10;99.90;;;0.96;100.00;99310.34;5199781;28;20674;-62
2022/01/21 05:56:08;;;;;;;19.47;11.10;;;0.00;99.90;;;0.92;100.00;99310.69;5202498;28;20313;-63
2022/01/21 05:58:43;;;;;;;17.80;10.63;;;0.00;99.90;;;0.96;100.00;99307.81;5198478;28;20226;-63
2022/01/21 06:01:16;;;;;;;15.43;11.40;;;0.00;99.90;;;1.06;100.00;99315.72;5198402;28;20219;-63
2022/01/21 06:03:49;;;;;;;19.03;12.20;;;0.10;99.90;;;1.05;100.00;99311.41;5200189;28;20586;-63
2022/01/21 06:06:23;;;;;;;17.17;11.50;;;0.10;99.90;;;0.97;100.00;99320.56;5202588;28;20607;-62
2022/01/21 06:08:56;;;;;;;12.13;10.60;;;0.00;99.90;;;1.01;100.00;99314.31;5198699;28;20225;-62
2022/01/21 06:11:29;;;;;;;15.63;10.33;;;0.10;99.90;;;1.04;100.00;99320.59;5199788;28;20248;-63
2022/01/21 06:14:04;;;;;;;14.93;10.30;;;0.10;99.90;;;1.06;100.00;99325.78;5202385;28;20950;-63
2022/01/21 06:16:38;;;;;;;12.40;9.40;;;0.10;99.90;;;1.05;100.00;99329.03;5203712;28;20230;-62
2022/01/21 06:19:11;;;;;;;16.07;10.70;;;0.00;99.90;;;1.02;100.00;99326.16;5200324;28;20739;-63
2022/01/21 06:21:44;;;;;;;16.20;10.00;;;0.00;99.90;;;0.98;100.00;99324.03;5194654;28;20870;-63
2022/01/21 06:24:17;;;;;;;15.50;11.23;;;0.00;99.90;;;1.01;100.00;99319.34;5195724;28;20259;-62
2022/01/21 06:26:50;;;;;;;17.30;11.83;;;0.00;99.90;;;1.04;100.00;99332.28;5196925;28;20220;-62
2022/01/21 06:29:24;;;;;;;12.93;10.20;;;0.00;99.90;;;1.01;100.00;99337.84;5201544;28;20233;-63
2022/01/21 06:31:57;;;;;;;12.53;10.47;;;0.00;99.90;;;1.02;100.00;99331.19;5202357;28;20296;-60
2022/01/21 06:34:31;;;;;;;18.37;11.87;;;0.10;99.90;;;1.15;100.00;99334.44;5204185;28;20780;-62
2022/01/21 06:37:04;;;;;;;19.47;11.37;;;0.00;99.90;;;1.15;100.00;99344.50;5203194;28;20225;-62
2022/01/21 06:39:37;;;;;;;15.23;11.30;;;-0.10;99.90;;;1.06;100.00;99340.91;5202388;28;20221;-63
2022/01/21 06:42:11;;;;;;;15.67;10.77;;;0.00;99.90;;;1.03;100.00;99343.97;5194247;28;20228;-62
2022/01/21 06:44:45;;;;;;;17.90;11.77;;;0.00;99.90;;;1.03;100.00;99348.09;5194664;28;20224;-62
2022/01/21 06:47:19;;;;;;;17.60;11.90;;;0.10;99.90;;;1.06;100.00;99343.41;5195116;28;20225;-61
2022/01/21 06:49:52;;;;;;;19.37;12.53;;;0.10;99.90;;;1.07;100.00;99352.78;5194521;28;20614;-61
2022/01/21 06:52:25;;;;;;;17.83;11.50;;;0.10;99.90;;;1.11;100.00;99362.47;5194296;28;20235;-61
2022/01/21 06:54:59;;;;;;;17.77;11.37;;;0.00;99.90;;;1.02;100.00;99369.84;5194536;28;20220;-62
2022/01/21 06:57:37;;;;;;;16.13;11.20;;;0.00;99.90;;;1.01;100.00;99357.09;5195057;28;20309;-63
2022/01/21 07:00:18;;;;;;;16.13;11.10;;;0.00;99.90;;;1.02;100.00;99357.25;5195675;28;20596;-62
2022/01/21 07:02:53;;;;;;;20.60;12.00;;;0.00;99.90;;;1.00;100.00;99363.75;5195856;28;20319;-65
2022/01/21 07:05:29;;;;;;;19.00;11.70;;;0.00;99.90;;;0.99;100.00;99364.47;5194534;28;20232;-62
2022/01/21 07:08:02;;;;;;;14.43;11.10;;;0.00;99.90;;;0.99;100.00;99363.56;5192031;28;20226;-64
2022/01/21 07:10:35;;;;;;;17.30;11.70;;;0.00;99.90;;;1.00;100.00;99367.88;5194169;28;20891;-64
2022/01/21 07:13:10;;;;;;;15.27;10.83;;;0.10;99.90;;;0.94;100.00;99364.63;5192511;28;20629;-64
2022/01/21 07:15:44;;;;;;;21.93;12.47;;;0.00;99.90;;;0.91;100.00;99352.56;5194621;28;20942;-63
2022/01/21 07:18:17;;;;;;;18.57;12.73;;;-0.10;99.90;;;0.91;100.00;99355.09;5194696;28;20226;-63
2022/01/21 07:20:50;;;;;;;18.83;12.70;;;0.00;99.90;;;0.85;100.00;99354.38;5194710;28;20218;-64
2022/01/21 07:23:24;;;;;;;23.20;13.17;;;0.00;99.90;;;0.84;100.00;99361.03;5194870;28;20710;-64
2022/01/21 07:25:57;;;;;;;20.00;12.27;;;-0.10;99.90;;;0.80;100.00;99368.94;5193447;28;20219;-62
2022/01/21 07:28:30;;;;;;;22.40;11.57;;;-0.10;99.90;;;0.78;100.00;99372.91;5196356;28;20923;-64
2022/01/21 07:31:05;;;;;;;13.17;11.63;;;-0.10;99.90;;;0.75;100.00;99375.03;5202380;28;20233;-64
2022/01/21 07:33:38;;;;;;;13.13;11.27;;;-0.20;99.90;;;0.73;100.00;99373.94;5200760;28;20571;-62
2022/01/21 07:36:11;;;;;;;18.07;11.80;;;-0.20;99.90;;;0.72;100.00;99376.31;5197367;28;20229;-63
2022/01/21 07:38:45;;;;;;;17.70;12.87;;;-0.20;99.90;;;0.70;100.00;99375.22;5198738;28;20223;-64
2022/01/21 07:41:18;;;;;;;18.17;11.93;;;-0.20;99.90;;;0.73;100.00;99373.06;5201720;28;20225;-64
2022/01/21 07:43:52;;;;;;;17.47;13.10;;;-0.20;99.90;;;0.76;100.00;99374.31;5200509;28;20219;-63
2022/01/21 07:46:27;;;;;;;19.07;12.63;;;-0.20;99.90;;;0.84;100.00;99372.72;5205002;28;20330;-62
2022/01/21 07:49:01;;;;;;;17.60;12.77;;;-0.10;99.90;;;0.83;100.00;99381.91;5202112;28;20229;-64
2022/01/21 07:51:34;;;;;;;21.23;12.97;;;-0.10;99.90;;;0.84;100.00;99378.66;5204347;28;20230;-64
2022/01/21 07:54:07;;;;;;;18.87;12.23;;;-0.10;99.90;;;0.89;100.00;99386.75;5202875;28;20571;-64
2022/01/21 07:56:40;;;;;;;20.07;12.50;;;0.00;99.90;;;0.96;100.00;99388.38;5201035;28;20222;-64
2022/01/21 07:59:15;;;;;;;16.13;12.70;;;0.00;99.90;;;1.03;100.00;99388.38;5200138;28;20230;-64
2022/01/21 08:01:49;;;;;;;15.63;12.10;;;0.00;99.90;;;1.10;100.00;99383.34;5195991;28;20589;-64
2022/01/21 08:04:22;;;;;;;19.10;12.70;;;0.00;99.90;;;1.16;100.00;99375.63;5202632;28;20226;-62
2022/01/21 08:06:55;;;;;;;23.00;13.53;;;0.10;99.90;;;1.16;100.00;99378.13;5203209;28;20230;-64
2022/01/21 08:09:28;;;;;;;19.00;12.23;;;0.10;99.90;;;1.21;100.00;99382.09;5202936;28;20506;-63
2022/01/21 08:12:01;;;;;;;19.07;13.63;;;0.20;99.90;;;1.20;100.00;99376.16;5198368;28;20741;-63
2022/01/21 08:14:35;;;;;;;22.47;13.13;;;0.20;99.90;;;1.30;100.00;99384.06;5200758;28;20227;-64
2022/01/21 08:17:09;;;;;;;18.47;12.70;;;0.30;99.90;;;1.26;100.00;99389.47;5202665;28;20227;-64
2022/01/21 08:19:42;;;;;;;19.23;13.63;;;0.30;99.90;;;1.33;100.00;99381.91;5201123;28;20221;-63
2022/01/21 08:22:15;;;;;;;18.47;13.23;;;0.30;99.90;;;1.49;100.00;99383.72;5200457;28;20641;-64
2022/01/21 08:24:48;;;;;;;22.43;13.00;;;0.40;99.90;;;1.53;100.00;99389.28;5194110;28;20220;-63
2022/01/21 08:27:22;;;;;;;19.27;12.37;;;0.40;99.90;;;1.38;100.00;99386.59;5199795;28;20227;-63
2022/01/21 08:29:56;;;;;;;16.17;11.70;;;0.40;99.90;;;1.46;100.00;99388.38;5201893;28;20222;-62
2022/01/21 08:32:30;;;;;;;20.00;12.37;;;0.50;99.90;;;1.44;100.00;99382.28;5200216;28;20317;-63
2022/01/21 08:35:05;;;;;;;14.83;11.80;;;0.50;99.90;;;1.45;100.00;99382.44;5200423;28;20238;-63
2022/01/21 08:37:38;;;;;;;16.90;12.50;;;0.60;99.90;;;1.43;100.00;99375.41;5200638;28;20244;-63
2022/01/21 08:40:12;;;;;;;18.47;12.33;;;0.50;99.90;;;1.47;100.00;99382.63;5193101;28;20722;-63
2022/01/21 08:42:45;;;;;;;17.87;11.90;;;0.60;99.90;;;1.71;100.00;99380.41;5198658;28;20319;-62
2022/01/21 08:45:19;;;;;;;19.40;12.40;;;0.60;99.90;;;1.78;100.00;99372.84;5199391;28;20225;-62
2022/01/21 08:47:53;;;;;;;15.53;12.40;;;0.60;99.90;;;1.84;100.00;99376.81;5195381;28;20565;-63
2022/01/21 08:50:27;;;;;;;16.10;11.70;;;0.60;99.90;;;1.79;100.00;99384.72;5194618;28;20225;-62
2022/01/21 08:53:10;;;;;;;18.07;12.10;;;0.70;99.90;;;1.99;100.00;99386.13;5199548;28;20226;-63
2022/01/21 08:55:43;;;;;;;15.40;11.73;;;0.80;99.90;;;1.92;99.74;99391.22;5202596;28;20692;-62
2022/01/21 08:58:16;;;;;;;15.47;12.00;;;0.80;99.90;;;1.83;98.69;99401.09;5199161;28;20701;-63
2022/01/21 09:00:49;;;;;;;19.37;12.70;;;0.90;99.90;;;1.89;99.23;99411.00;5197502;28;20217;-62
2022/01/21 09:03:24;;;;;;;17.07;11.97;;;1.00;99.90;;;1.91;100.00;99409.56;5199427;28;20229;-62
2022/01/21 09:05:57;;;;;;;15.63;11.30;;;1.00;99.90;;;1.95;100.00;99412.63;5203523;28;20620;-62
2022/01/21 09:08:31;;;;;;;22.07;12.10;;;1.00;99.90;;;2.04;100.00;99417.81;5201625;28;20224;-62
2022/01/21 09:11:05;;;;;;;20.67;12.03;;;1.00;99.90;;;2.06;99.58;99416.38;5205254;28;20226;-62
2022/01/21 09:13:41;;;;;;;20.23;12.03;;;1.00;99.90;;;2.17;99.68;99418.47;5203905;28;20225;-62
2022/01/21 09:16:15;;;;;;;17.83;12.97;;;1.00;99.90;;;2.24;99.47;99418.47;5205308;28;20220;-61
2022/01/21 09:18:51;;;;;;;20.23;14.03;;;1.10;99.90;;;2.35;98.54;99421.31;5199129;28;20581;-62
2022/01/21 09:21:41;;;;;;;23.07;15.50;;;1.20;99.90;;;2.46;98.35;99418.38;5204691;28;20236;-62
2022/01/21 09:24:14;;;;;;;18.33;13.20;;;1.20;99.90;;;2.43;96.20;99412.97;5205212;28;20223;-62
2022/01/21 09:26:48;;;;;;;17.43;12.40;;;1.30;99.90;;;2.57;97.02;99415.44;5205356;28;20221;-63
2022/01/21 09:29:21;;;;;;;17.40;11.90;;;1.30;99.90;;;2.50;93.28;99412.97;5203506;28;20225;-63
2022/01/21 09:31:54;;;;;;;14.77;10.60;;;1.50;99.90;;;2.50;94.24;99404.50;5204688;28;20248;-62
2022/01/21 09:34:30;;;;;;;19.57;11.53;;;1.50;99.90;;;2.69;94.67;99411.78;5204481;28;20225;-63
2022/01/21 09:37:04;;;;;;;15.27;10.87;;;1.50;99.90;;;2.77;93.26;99414.25;5206114;28;20217;-61
2022/01/21 09:39:37;;;;;;;11.67;10.40;;;1.50;99.90;;;2.65;92.21;99421.38;5201807;28;20222;-62
2022/01/21 09:42:14;;;;;;;14.90;10.63;;;1.50;99.90;;;2.55;93.32;99427.00;5205645;28;20225;-63
2022/01/21 09:44:49;;;;;;;16.23;11.07;;;1.60;99.90;;;2.62;94.53;99428.59;5204436;28;20220;-63
2022/01/21 09:47:22;;;;;;;16.47;11.37;;;1.60;99.90;;;2.69;95.12;99424.41;5205920;28;20296;-63
2022/01/21 09:49:57;;;;;;;17.77;11.87;;;1.70;99.90;;;2.73;95.17;99418.06;5203670;28;20214;-62
2022/01/21 09:52:30;;;;;;;20.57;13.30;;;1.70;99.90;;;2.85;93.33;99416.03;5206401;28;20254;-62
2022/01/21 09:55:06;;;;;;;17.30;11.80;;;1.70;99.90;;;2.88;92.83;99419.78;5202324;28;20233;-63
2022/01/21 09:57:41;;;;;;;19.83;12.27;;;1.70;99.90;;;2.98;91.63;99429.31;5204634;28;20229;-63
2022/01/21 10:00:17;;;;;;;15.30;12.30;;;1.70;99.90;;;2.92;90.95;99431.16;5200140;28;20221;-63
2022/01/21 10:02:52;;;;;;;16.47;11.73;;;1.70;99.90;;;2.70;88.60;99427.84;5197014;28;20675;-63
2022/01/21 10:05:27;;;;;;;17.47;10.97;;;1.70;99.90;;;2.84;92.36;99426.88;5202269;28;20271;-62
2022/01/21 10:08:01;;;;;;;16.20;10.60;;;1.80;99.90;;;2.91;93.89;99426.81;5204089;28;20925;-63
2022/01/21 10:10:34;;;;;;;16.80;11.60;;;1.80;99.90;;;3.00;94.18;99421.88;5203383;28;20239;-63
2022/01/21 10:13:08;;;;;;;14.10;11.20;;;1.90;99.90;;;3.04;94.52;99424.94;5202916;28;20224;-62
2022/01/21 10:15:41;;;;;;;15.27;11.03;;;1.90;99.90;;;3.11;91.94;99424.88;5195650;28;21058;-62
2022/01/21 10:18:17;;;;;;;16.03;10.90;;;1.90;99.90;;;3.20;90.51;99424.09;5194863;28;20542;-63
2022/01/21 10:21:05;;;;;;;15.00;10.63;;;1.90;99.90;;;3.24;90.20;99426.25;5196153;28;20261;-62
2022/01/21 10:23:41;;;;;;;16.27;11.10;;;1.90;99.90;;;3.11;88.22;99427.41;5194351;28;20239;-62
2022/01/21 10:26:16;;;;;;;20.23;11.53;;;1.90;99.90;;;3.04;88.95;99440.09;5194308;28;20224;-63
2022/01/21 10:28:57;;;;;;;18.63;11.97;;;2.00;99.90;;;3.12;89.41;99441.84;5193736;28;20244;-62
2022/01/21 10:31:30;;;;;;;17.00;11.63;;;2.00;99.90;;;2.74;86.74;99446.75;5194222;28;20222;-60
2022/01/21 10:34:05;;;;;;;15.57;11.27;;;1.90;99.90;;;2.73;88.97;99448.38;5195806;28;20232;-60
2022/01/21 10:36:45;;;;;;;15.27;9.87;;;1.80;99.90;;;2.70;87.38;99446.41;5196241;28;20221;-61
2022/01/21 10:39:28;;;;;;;17.20;9.80;;;1.90;99.90;;;2.73;87.86;99444.94;5195498;28;20271;-60
2022/01/21 10:42:02;;;;;;;19.20;10.00;;;1.80;99.90;;;2.60;87.12;99445.19;5196473;28;20598;-60
2022/01/21 10:44:49;;;;;;;17.97;9.87;;;1.70;99.90;;;2.62;88.16;99438.69;5197939;28;20236;-61
2022/01/21 10:47:27;;;;;;;21.90;11.23;;;1.70;99.90;;;2.68;89.77;99449.47;5194996;28;20234;-62
2022/01/21 10:50:06;;;;;;;17.00;11.73;;;1.70;99.90;;;2.71;88.24;99442.25;5194708;28;20228;-60
2022/01/21 10:52:45;;;;;;;15.27;11.67;;;1.80;99.90;;;2.76;89.63;99428.50;5192703;28;20685;-61
2022/01/21 10:55:30;;;;;;;19.03;11.53;;;1.80;99.90;;;2.93;88.23;99430.41;5195048;28;20226;-62
2022/01/21 10:58:09;;;;;;;20.07;16.33;;;1.90;99.90;;;3.24;87.08;99423.72;5193654;28;20606;-62
2022/01/21 11:00:59;;;;;;;15.37;12.87;;;1.90;99.90;;;3.27;88.07;99422.44;5194172;28;20230;-60
2022/01/21 11:03:32;;;;;;;18.80;11.73;;;2.00;99.90;;;3.09;85.36;99421.28;5195442;28;20233;-61
2022/01/21 11:06:13;;;;;;;12.80;10.63;;;2.00;99.90;;;2.98;85.43;99429.31;5193999;28;20228;-62
2022/01/21 11:08:48;;;;;;;19.13;10.97;;;2.10;99.90;;;2.93;87.58;99421.19;5192697;28;20226;-61
2022/01/21 11:11:26;;;;;;;17.10;11.30;;;2.10;99.90;;;3.12;89.40;99421.63;5194190;28;20228;-61
2022/01/21 11:14:10;;;;;;;178.00;87.07;;;2.10;99.90;;;3.31;89.05;99414.44;5192836;28;20241;-60
2022/01/21 11:16:46;;;;;;;184.77;94.30;;;2.20;99.90;;;3.15;84.82;99413.50;5191602;28;20218;-60
2022/01/21 11:19:39;;;;;;;37.17;24.47;;;2.20;99.90;;;3.14;86.61;99416.72;5196661;28;20222;-62
2022/01/21 11:22:12;;;;;;;37.43;33.63;;;2.20;99.90;;;3.34;86.21;99424.88;5196354;28;20231;-61
2022/01/21 11:24:50;;;;;;;98.40;89.33;;;2.30;99.90;;;3.35;83.79;99421.66;5197656;28;20219;-62